sensor_id;sensor_type;location;lat;lon;timestamp;pressure;altitude;pressure_sealevel;temperature;humidity
37202;BME280;37799;52.390;6.136;2023-02-12T00:00:30;103781.75;;;5.70;100.00
37202;BME280;37799;52.390;6.136;2023-02-12T00:02:55;103782.50;;;5.68;100.00
37202;BME280;37799;52.390;6.136;2023-02-12T00:05:20;103782.56;;;5.69;100.00
37202;BME280;37799;52.390;6.136;2023-02-12T00:07:45;103785.00;;;5.66;100.00
37202;BME280;37799;52.390;6.136;2023-02-12T00:10:11;103783.56;;;5.73;100.00
37202;BME280;37799;52.390;6.136;2023-02-12T00:12:37;103783.56;;;5.73;100.00
37202;BME280;37799;52.390;6.136;2023-02-12T00:15:03;103792.19;;;5.73;100.00
37202;BME280;37799;52.390;6.136;2023-02-12T00:17:28;103790.47;;;5.74;100.00
37202;BME280;37799;52.390;6.136;2023-02-12T00:19:53;103792.72;;;5.66;100.00
37202;BME280;37799;52.390;6.136;2023-02-12T00:22:19;103794.31;;;5.62;100.00
37202;BME280;37799;52.390;6.136;2023-02-12T00:24:44;103800.88;;;5.56;100.00
37202;BME280;37799;52.390;6.136;2023-02-12T00:27:09;103792.09;;;5.51;100.00
37202;BME280;37799;52.390;6.136;2023-02-12T00:29:36;103793.56;;;5.46;100.00
37202;BME280;37799;52.390;6.136;2023-02-12T00:32:01;103801.16;;;5.43;100.00
37202;BME280;37799;52.390;6.136;2023-02-12T00:34:26;103800.97;;;5.38;100.00
37202;BME280;37799;52.390;6.136;2023-02-12T00:36:52;103797.72;;;5.42;100.00
37202;BME280;37799;52.390;6.136;2023-02-12T00:39:17;103796.44;;;5.32;100.00
37202;BME280;37799;52.390;6.136;2023-02-12T00:41:42;103797.81;;;5.24;100.00
37202;BME280;37799;52.390;6.136;2023-02-12T00:44:07;103802.25;;;5.28;100.00
37202;BME280;37799;52.390;6.136;2023-02-12T00:46:33;103792.03;;;5.30;100.00
37202;BME280;37799;52.390;6.136;2023-02-12T00:48:58;103798.28;;;5.35;100.00
37202;BME280;37799;52.390;6.136;2023-02-12T00:51:23;103795.84;;;5.38;100.00
37202;BME280;37799;52.390;6.136;2023-02-12T00:53:48;103798.28;;;5.35;100.00
37202;BME280;37799;52.390;6.136;2023-02-12T00:56:14;103786.25;;;5.34;100.00
37202;BME280;37799;52.390;6.136;2023-02-12T00:58:39;103794.69;;;5.31;100.00
37202;BME280;37799;52.390;6.136;2023-02-12T01:01:05;103791.78;;;5.24;100.00
37202;BME280;37799;52.390;6.136;2023-02-12T01:03:30;103799.16;;;5.16;100.00
37202;BME280;37799;52.390;6.136;2023-02-12T01:05:55;103795.84;;;4.99;100.00
37202;BME280;37799;52.390;6.136;2023-02-12T01:08:21;103799.44;;;4.84;100.00
37202;BME280;37799;52.390;6.136;2023-02-12T01:10:53;103796.16;;;4.68;100.00
37202;BME280;37799;52.390;6.136;2023-02-12T01:13:19;103799.06;;;4.57;100.00
37202;BME280;37799;52.390;6.136;2023-02-12T01:15:44;103794.38;;;4.48;100.00
37202;BME280;37799;52.390;6.136;2023-02-12T01:18:09;103788.00;;;4.40;100.00
37202;BME280;37799;52.390;6.136;2023-02-12T01:20:35;103796.28;;;4.34;100.00
37202;BME280;37799;52.390;6.136;2023-02-12T01:23:01;103791.47;;;4.23;100.00
37202;BME280;37799;52.390;6.136;2023-02-12T01:25:26;103797.84;;;4.13;100.00
37202;BME280;37799;52.390;6.136;2023-02-12T01:27:52;103803.50;;;4.06;100.00
37202;BME280;37799;52.390;6.136;2023-02-12T01:30:18;103799.38;;;4.09;100.00
37202;BME280;37799;52.390;6.136;2023-02-12T01:32:46;103802.63;;;4.05;100.00
37202;BME280;37799;52.390;6.136;2023-02-12T01:35:11;103797.09;;;3.98;100.00
37202;BME280;37799;52.390;6.136;2023-02-12T01:37:37;103802.28;;;3.99;100.00
37202;BME280;37799;52.390;6.136;2023-02-12T01:40:03;103799.53;;;3.95;100.00
37202;BME280;37799;52.390;6.136;2023-02-12T01:42:29;103794.59;;;3.81;100.00
37202;BME280;37799;52.390;6.136;2023-02-12T01:47:43;103796.22;;;3.79;100.00
37202;BME280;37799;52.390;6.136;2023-02-12T01:50:14;103802.22;;;3.80;100.00
37202;BME280;37799;52.390;6.136;2023-02-12T01:52:53;103799.66;;;3.80;100.00
37202;BME280;37799;52.390;6.136;2023-02-12T01:55:20;103804.13;;;3.84;100.00
37202;BME280;37799;52.390;6.136;2023-02-12T01:57:47;103801.63;;;3.85;100.00
37202;BME280;37799;52.390;6.136;2023-02-12T02:00:16;103806.69;;;3.84;100.00
37202;BME280;37799;52.390;6.136;2023-02-12T02:02:44;103804.78;;;3.80;100.00
37202;BME280;37799;52.390;6.136;2023-02-12T02:05:11;103795.97;;;3.75;100.00
37202;BME280;37799;52.390;6.136;2023-02-12T02:07:39;103801.09;;;3.75;100.00
37202;BME280;37799;52.390;6.136;2023-02-12T02:10:06;103799.22;;;3.89;100.00
37202;BME280;37799;52.390;6.136;2023-02-12T02:12:32;103795.47;;;3.82;100.00
37202;BME280;37799;52.390;6.136;2023-02-12T02:15:16;103799.66;;;3.80;100.00
37202;BME280;37799;52.390;6.136;2023-02-12T02:17:51;103804.59;;;3.77;100.00
37202;BME280;37799;52.390;6.136;2023-02-12T02:29:02;103790.34;;;3.82;100.00
37202;BME280;37799;52.390;6.136;2023-02-12T02:31:42;103780.16;;;3.83;100.00
37202;BME280;37799;52.390;6.136;2023-02-12T02:34:12;103787.44;;;3.92;100.00
37202;BME280;37799;52.390;6.136;2023-02-12T02:39:35;103776.06;;;3.87;100.00
37202;BME280;37799;52.390;6.136;2023-02-12T02:42:15;103773.84;;;3.77;100.00
37202;BME280;37799;52.390;6.136;2023-02-12T02:44:49;103779.44;;;3.68;100.00
37202;BME280;37799;52.390;6.136;2023-02-12T02:47:18;103775.97;;;3.68;100.00
37202;BME280;37799;52.390;6.136;2023-02-12T02:49:56;103783.41;;;3.63;100.00
37202;BME280;37799;52.390;6.136;2023-02-12T02:52:50;103772.88;;;3.57;100.00
37202;BME280;37799;52.390;6.136;2023-02-12T02:55:19;103777.06;;;3.55;100.00
37202;BME280;37799;52.390;6.136;2023-02-12T02:57:54;103781.59;;;3.61;100.00
37202;BME280;37799;52.390;6.136;2023-02-12T03:00:25;103765.34;;;3.60;100.00
37202;BME280;37799;52.390;6.136;2023-02-12T03:03:01;103774.25;;;3.50;100.00
37202;BME280;37799;52.390;6.136;2023-02-12T03:05:50;103776.13;;;3.37;100.00
37202;BME280;37799;52.390;6.136;2023-02-12T03:08:23;103769.66;;;3.27;100.00
37202;BME280;37799;52.390;6.136;2023-02-12T03:11:07;103770.00;;;3.17;100.00
37202;BME280;37799;52.390;6.136;2023-02-12T03:13:42;103771.28;;;3.09;100.00
37202;BME280;37799;52.390;6.136;2023-02-12T03:16:24;103774.25;;;3.00;100.00
37202;BME280;37799;52.390;6.136;2023-02-12T03:19:11;103759.44;;;2.94;100.00
37202;BME280;37799;52.390;6.136;2023-02-12T03:22:03;103757.38;;;2.87;100.00
37202;BME280;37799;52.390;6.136;2023-02-12T03:24:38;103763.13;;;2.83;100.00
37202;BME280;37799;52.390;6.136;2023-02-12T03:27:14;103762.06;;;2.80;100.00
37202;BME280;37799;52.390;6.136;2023-02-12T03:29:41;103773.34;;;2.83;100.00
37202;BME280;37799;52.390;6.136;2023-02-12T03:32:15;103769.19;;;2.85;100.00
37202;BME280;37799;52.390;6.136;2023-02-12T03:34:56;103768.22;;;2.83;100.00
37202;BME280;37799;52.390;6.136;2023-02-12T03:37:26;103761.34;;;2.82;100.00
37202;BME280;37799;52.390;6.136;2023-02-12T03:40:14;103755.84;;;2.75;100.00
37202;BME280;37799;52.390;6.136;2023-02-12T03:42:56;103760.78;;;2.72;100.00
37202;BME280;37799;52.390;6.136;2023-02-12T03:45:49;103765.22;;;2.74;100.00
37202;BME280;37799;52.390;6.136;2023-02-12T03:48:33;103767.91;;;2.77;100.00
37202;BME280;37799;52.390;6.136;2023-02-12T03:51:22;103765.66;;;2.83;100.00
37202;BME280;37799;52.390;6.136;2023-02-12T03:53:51;103769.19;;;2.85;100.00
37202;BME280;37799;52.390;6.136;2023-02-12T03:56:23;103775.28;;;2.87;100.00
37202;BME280;37799;52.390;6.136;2023-02-12T03:58:49;103772.88;;;2.90;100.00
37202;BME280;37799;52.390;6.136;2023-02-12T04:01:15;103776.97;;;2.87;100.00
37202;BME280;37799;52.390;6.136;2023-02-12T04:03:42;103770.63;;;2.80;100.00
37202;BME280;37799;52.390;6.136;2023-02-12T04:06:23;103773.19;;;2.80;100.00
37202;BME280;37799;52.390;6.136;2023-02-12T04:08:49;103776.56;;;2.79;100.00
37202;BME280;37799;52.390;6.136;2023-02-12T04:14:12;103780.56;;;2.74;100.00
37202;BME280;37799;52.390;6.136;2023-02-12T04:16:44;103781.25;;;2.72;100.00
37202;BME280;37799;52.390;6.136;2023-02-12T04:19:16;103788.03;;;2.71;100.00
37202;BME280;37799;52.390;6.136;2023-02-12T04:22:09;103792.22;;;2.69;100.00
37202;BME280;37799;52.390;6.136;2023-02-12T04:27:25;103801.03;;;2.74;100.00
37202;BME280;37799;52.390;6.136;2023-02-12T04:29:55;103803.09;;;2.81;100.00
37202;BME280;37799;52.390;6.136;2023-02-12T04:32:32;103808.72;;;2.90;100.00
37202;BME280;37799;52.390;6.136;2023-02-12T04:37:57;103806.88;;;3.04;100.00
37202;BME280;37799;52.390;6.136;2023-02-12T04:40:26;103808.88;;;3.10;100.00
37202;BME280;37799;52.390;6.136;2023-02-12T04:42:52;103812.88;;;3.21;100.00
37202;BME280;37799;52.390;6.136;2023-02-12T04:45:27;103821.44;;;3.21;100.00
37202;BME280;37799;52.390;6.136;2023-02-12T04:47:52;103816.56;;;3.26;100.00
37202;BME280;37799;52.390;6.136;2023-02-12T04:50:18;103820.16;;;3.30;100.00
37202;BME280;37799;52.390;6.136;2023-02-12T04:52:43;103820.47;;;3.36;100.00
37202;BME280;37799;52.390;6.136;2023-02-12T04:55:08;103823.97;;;3.38;100.00
37202;BME280;37799;52.390;6.136;2023-02-12T04:57:34;103821.66;;;3.42;100.00
37202;BME280;37799;52.390;6.136;2023-02-12T04:59:59;103827.09;;;3.48;100.00
37202;BME280;37799;52.390;6.136;2023-02-12T05:02:24;103818.94;;;3.55;100.00
37202;BME280;37799;52.390;6.136;2023-02-12T05:04:50;103822.59;;;3.61;100.00
37202;BME280;37799;52.390;6.136;2023-02-12T05:07:15;103823.47;;;3.61;100.00
37202;BME280;37799;52.390;6.136;2023-02-12T05:09:41;103815.16;;;3.65;100.00
37202;BME280;37799;52.390;6.136;2023-02-12T05:12:06;103814.09;;;3.62;100.00
37202;BME280;37799;52.390;6.136;2023-02-12T05:14:32;103816.91;;;3.66;100.00
37202;BME280;37799;52.390;6.136;2023-02-12T05:16:57;103822.19;;;3.69;100.00
37202;BME280;37799;52.390;6.136;2023-02-12T05:19:22;103817.06;;;3.69;100.00
37202;BME280;37799;52.390;6.136;2023-02-12T05:21:51;103818.09;;;3.73;100.00
37202;BME280;37799;52.390;6.136;2023-02-12T05:24:17;103818.41;;;3.79;100.00
37202;BME280;37799;52.390;6.136;2023-02-12T05:26:42;103820.44;;;3.86;100.00
37202;BME280;37799;52.390;6.136;2023-02-12T05:29:08;103814.44;;;3.85;100.00
37202;BME280;37799;52.390;6.136;2023-02-12T05:31:33;103829.81;;;3.85;100.00
37202;BME280;37799;52.390;6.136;2023-02-12T05:33:58;103819.78;;;3.90;100.00
37202;BME280;37799;52.390;6.136;2023-02-12T05:36:24;103820.19;;;3.98;100.00
37202;BME280;37799;52.390;6.136;2023-02-12T05:38:50;103823.94;;;4.04;100.00
37202;BME280;37799;52.390;6.136;2023-02-12T05:41:18;103821.66;;;4.10;100.00
37202;BME280;37799;52.390;6.136;2023-02-12T05:43:44;103816.81;;;4.17;100.00
37202;BME280;37799;52.390;6.136;2023-02-12T05:46:10;103820.50;;;4.22;100.00
37202;BME280;37799;52.390;6.136;2023-02-12T05:48:36;103818.88;;;4.24;100.00
37202;BME280;37799;52.390;6.136;2023-02-12T05:51:11;103818.06;;;4.25;100.00
37202;BME280;37799;52.390;6.136;2023-02-12T05:53:38;103819.19;;;4.30;100.00
37202;BME280;37799;52.390;6.136;2023-02-12T05:58:33;103827.66;;;4.29;100.00
37202;BME280;37799;52.390;6.136;2023-02-12T06:00:58;103828.63;;;4.31;100.00
37202;BME280;37799;52.390;6.136;2023-02-12T06:03:23;103831.53;;;4.38;100.00
37202;BME280;37799;52.390;6.136;2023-02-12T06:05:50;103831.91;;;4.46;100.00
37202;BME280;37799;52.390;6.136;2023-02-12T06:08:15;103837.31;;;4.52;100.00
37202;BME280;37799;52.390;6.136;2023-02-12T06:10:40;103839.25;;;4.56;100.00
37202;BME280;37799;52.390;6.136;2023-02-12T06:13:05;103837.75;;;4.61;100.00
37202;BME280;37799;52.390;6.136;2023-02-12T06:15:31;103836.13;;;4.63;100.00
37202;BME280;37799;52.390;6.136;2023-02-12T06:17:56;103840.47;;;4.64;100.00
37202;BME280;37799;52.390;6.136;2023-02-12T06:20:24;103842.34;;;4.68;100.00
37202;BME280;37799;52.390;6.136;2023-02-12T06:22:49;103839.94;;;4.71;100.00
37202;BME280;37799;52.390;6.136;2023-02-12T06:25:15;103837.16;;;4.67;100.00
37202;BME280;37799;52.390;6.136;2023-02-12T06:27:40;103834.66;;;4.68;100.00
37202;BME280;37799;52.390;6.136;2023-02-12T06:30:06;103826.88;;;4.67;100.00
37202;BME280;37799;52.390;6.136;2023-02-12T06:32:31;103828.88;;;4.72;100.00
37202;BME280;37799;52.390;6.136;2023-02-12T06:34:56;103829.19;;;4.80;100.00
37202;BME280;37799;52.390;6.136;2023-02-12T06:37:22;103834.63;;;4.86;100.00
37202;BME280;37799;52.390;6.136;2023-02-12T06:39:47;103832.00;;;4.85;100.00
37202;BME280;37799;52.390;6.136;2023-02-12T06:42:12;103842.41;;;4.88;100.00
37202;BME280;37799;52.390;6.136;2023-02-12T06:44:38;103828.88;;;4.92;100.00
37202;BME280;37799;52.390;6.136;2023-02-12T06:47:03;103839.16;;;4.92;100.00
37202;BME280;37799;52.390;6.136;2023-02-12T06:49:28;103840.19;;;4.95;100.00
37202;BME280;37799;52.390;6.136;2023-02-12T06:51:54;103843.41;;;4.91;100.00
37202;BME280;37799;52.390;6.136;2023-02-12T06:54:19;103840.25;;;4.97;100.00
37202;BME280;37799;52.390;6.136;2023-02-12T06:56:44;103838.84;;;5.03;100.00
37202;BME280;37799;52.390;6.136;2023-02-12T06:59:14;103844.03;;;5.05;100.00
37202;BME280;37799;52.390;6.136;2023-02-12T07:01:40;103847.41;;;5.04;100.00
37202;BME280;37799;52.390;6.136;2023-02-12T07:04:06;103851.75;;;5.05;100.00
37202;BME280;37799;52.390;6.136;2023-02-12T07:06:34;103855.25;;;5.07;100.00
37202;BME280;37799;52.390;6.136;2023-02-12T07:08:59;103851.97;;;5.10;100.00
37202;BME280;37799;52.390;6.136;2023-02-12T07:11:30;103855.47;;;5.12;100.00
37202;BME280;37799;52.390;6.136;2023-02-12T07:13:56;103858.25;;;5.16;100.00
37202;BME280;37799;52.390;6.136;2023-02-12T07:16:22;103860.75;;;5.15;100.00
37202;BME280;37799;52.390;6.136;2023-02-12T07:18:47;103867.69;;;5.17;100.00
37202;BME280;37799;52.390;6.136;2023-02-12T07:21:14;103872.97;;;5.20;100.00
37202;BME280;37799;52.390;6.136;2023-02-12T07:23:40;103880.78;;;5.22;100.00
37202;BME280;37799;52.390;6.136;2023-02-12T07:26:13;103878.34;;;5.25;100.00
37202;BME280;37799;52.390;6.136;2023-02-12T07:28:39;103868.94;;;5.25;100.00
37202;BME280;37799;52.390;6.136;2023-02-12T07:31:10;103874.00;;;5.24;100.00
37202;BME280;37799;52.390;6.136;2023-02-12T07:33:37;103879.28;;;5.27;100.00
37202;BME280;37799;52.390;6.136;2023-02-12T07:36:05;103878.53;;;5.29;100.00
37202;BME280;37799;52.390;6.136;2023-02-12T07:38:30;103875.00;;;5.27;100.00
37202;BME280;37799;52.390;6.136;2023-02-12T07:41:05;103880.16;;;5.27;100.00
37202;BME280;37799;52.390;6.136;2023-02-12T07:43:31;103890.56;;;5.30;100.00
37202;BME280;37799;52.390;6.136;2023-02-12T07:46:07;103890.56;;;5.30;100.00
37202;BME280;37799;52.390;6.136;2023-02-12T07:48:33;103893.25;;;5.33;100.00
37202;BME280;37799;52.390;6.136;2023-02-12T07:51:03;103895.16;;;5.38;100.00
37202;BME280;37799;52.390;6.136;2023-02-12T07:53:28;103899.75;;;5.45;100.00
37202;BME280;37799;52.390;6.136;2023-02-12T07:55:54;103907.75;;;5.51;100.00
37202;BME280;37799;52.390;6.136;2023-02-12T07:58:19;103900.44;;;5.60;100.00
37202;BME280;37799;52.390;6.136;2023-02-12T08:00:44;103902.06;;;5.58;100.00
37202;BME280;37799;52.390;6.136;2023-02-12T08:03:09;103909.09;;;5.62;100.00
37202;BME280;37799;52.390;6.136;2023-02-12T08:05:35;103906.53;;;5.62;100.00
37202;BME280;37799;52.390;6.136;2023-02-12T08:08:00;103915.31;;;5.67;100.00
37202;BME280;37799;52.390;6.136;2023-02-12T08:10:26;103916.38;;;5.72;100.00
37202;BME280;37799;52.390;6.136;2023-02-12T08:12:51;103926.06;;;5.78;100.00
37202;BME280;37799;52.390;6.136;2023-02-12T08:15:16;103925.19;;;5.77;100.00
37202;BME280;37799;52.390;6.136;2023-02-12T08:17:42;103921.06;;;5.81;100.00
37202;BME280;37799;52.390;6.136;2023-02-12T08:20:08;103940.06;;;5.84;100.00
37202;BME280;37799;52.390;6.136;2023-02-12T08:22:33;103934.34;;;5.90;100.00
37202;BME280;37799;52.390;6.136;2023-02-12T08:24:58;103936.97;;;5.91;100.00
37202;BME280;37799;52.390;6.136;2023-02-12T08:27:23;103942.13;;;5.91;100.00
37202;BME280;37799;52.390;6.136;2023-02-12T08:29:49;103938.19;;;6.00;100.00
37202;BME280;37799;52.390;6.136;2023-02-12T08:32:14;103941.94;;;6.08;100.00
37202;BME280;37799;52.390;6.136;2023-02-12T08:34:41;103940.94;;;6.04;100.00
37202;BME280;37799;52.390;6.136;2023-02-12T08:37:06;103941.91;;;6.06;100.00
37202;BME280;37799;52.390;6.136;2023-02-12T08:39:31;103942.94;;;6.11;100.00
37202;BME280;37799;52.390;6.136;2023-02-12T08:41:58;103944.03;;;6.16;100.00
37202;BME280;37799;52.390;6.136;2023-02-12T08:44:24;103944.16;;;6.19;100.00
37202;BME280;37799;52.390;6.136;2023-02-12T08:46:51;103948.94;;;6.31;100.00
37202;BME280;37799;52.390;6.136;2023-02-12T08:49:19;103948.50;;;6.41;100.00
37202;BME280;37799;52.390;6.136;2023-02-12T08:51:48;103960.06;;;6.51;100.00
37202;BME280;37799;52.390;6.136;2023-02-12T08:54:17;103956.84;;;6.57;100.00
37202;BME280;37799;52.390;6.136;2023-02-12T08:56:43;103961.41;;;6.64;100.00
37202;BME280;37799;52.390;6.136;2023-02-12T08:59:13;103960.81;;;6.69;100.00
37202;BME280;37799;52.390;6.136;2023-02-12T09:01:39;103965.31;;;6.75;100.00
37202;BME280;37799;52.390;6.136;2023-02-12T09:04:06;103967.38;;;6.84;100.00
37202;BME280;37799;52.390;6.136;2023-02-12T09:06:33;103963.16;;;6.86;100.00
37202;BME280;37799;52.390;6.136;2023-02-12T09:08:59;103971.09;;;6.90;100.00
37202;BME280;37799;52.390;6.136;2023-02-12T09:11:26;103974.81;;;6.98;100.00
37202;BME280;37799;52.390;6.136;2023-02-12T09:13:57;103981.06;;;7.03;100.00
37202;BME280;37799;52.390;6.136;2023-02-12T09:16:23;103971.91;;;7.12;100.00
37202;BME280;37799;52.390;6.136;2023-02-12T09:18:48;103969.56;;;7.18;100.00
37202;BME280;37799;52.390;6.136;2023-02-12T09:21:15;103966.22;;;7.20;100.00
37202;BME280;37799;52.390;6.136;2023-02-12T09:23:42;103971.59;;;7.26;100.00
37202;BME280;37799;52.390;6.136;2023-02-12T09:26:10;103979.13;;;7.43;100.00
37202;BME280;37799;52.390;6.136;2023-02-12T09:28:36;103982.47;;;7.42;100.00
37202;BME280;37799;52.390;6.136;2023-02-12T09:31:09;103980.44;;;7.55;100.00
37202;BME280;37799;52.390;6.136;2023-02-12T09:33:35;103975.97;;;7.51;100.00
37202;BME280;37799;52.390;6.136;2023-02-12T09:36:02;103980.44;;;7.55;100.00
37202;BME280;37799;52.390;6.136;2023-02-12T09:38:28;103973.06;;;7.66;100.00
37202;BME280;37799;52.390;6.136;2023-02-12T09:43:43;103978.34;;;7.93;100.00
37202;BME280;37799;52.390;6.136;2023-02-12T09:46:29;103979.22;;;7.93;100.00
37202;BME280;37799;52.390;6.136;2023-02-12T09:49:18;103975.31;;;8.05;100.00
37202;BME280;37799;52.390;6.136;2023-02-12T09:51:50;103981.34;;;8.05;100.00
37202;BME280;37799;52.390;6.136;2023-02-12T09:54:20;103985.69;;;8.06;100.00
37202;BME280;37799;52.390;6.136;2023-02-12T09:56:58;103989.22;;;8.08;100.00
37202;BME280;37799;52.390;6.136;2023-02-12T09:59:38;103976.50;;;8.14;100.00
37202;BME280;37799;52.390;6.136;2023-02-12T10:02:15;103982.69;;;8.19;100.00
37202;BME280;37799;52.390;6.136;2023-02-12T10:04:42;103981.25;;;8.27;100.00
37202;BME280;37799;52.390;6.136;2023-02-12T10:07:16;103989.00;;;8.27;100.00
37202;BME280;37799;52.390;6.136;2023-02-12T10:12:39;103989.97;;;8.31;100.00
37202;BME280;37799;52.390;6.136;2023-02-12T10:15:14;103986.66;;;8.34;100.00
37202;BME280;37799;52.390;6.136;2023-02-12T10:26:20;103977.03;;;8.55;100.00
37202;BME280;37799;52.390;6.136;2023-02-12T10:28:48;103970.22;;;8.57;100.00
37202;BME280;37799;52.390;6.136;2023-02-12T10:33:48;103979.19;;;8.68;100.00
37202;BME280;37799;52.390;6.136;2023-02-12T10:36:38;103984.78;;;8.55;100.00
37202;BME280;37799;52.390;6.136;2023-02-12T10:39:11;103979.09;;;8.65;100.00
37202;BME280;37799;52.390;6.136;2023-02-12T10:41:53;103975.28;;;8.81;100.00
37202;BME280;37799;52.390;6.136;2023-02-12T10:44:20;103975.75;;;8.96;100.00
37202;BME280;37799;52.390;6.136;2023-02-12T10:46:45;103980.25;;;9.02;100.00
37202;BME280;37799;52.390;6.136;2023-02-12T10:49:14;103979.13;;;9.22;100.00
37202;BME280;37799;52.390;6.136;2023-02-12T10:51:54;103981.16;;;9.32;100.00
37202;BME280;37799;52.390;6.136;2023-02-12T10:57:06;103981.97;;;9.60;100.00
37202;BME280;37799;52.390;6.136;2023-02-12T10:59:33;103976.97;;;9.66;100.00
37202;BME280;37799;52.390;6.136;2023-02-12T11:01:59;103978.59;;;9.94;100.00
37202;BME280;37799;52.390;6.136;2023-02-12T11:04:27;103978.63;;;10.27;100.00
37202;BME280;37799;52.390;6.136;2023-02-12T11:07:06;103982.91;;;10.25;100.00
37202;BME280;37799;52.390;6.136;2023-02-12T11:09:40;103975.31;;;10.01;100.00
37202;BME280;37799;52.390;6.136;2023-02-12T11:14:54;103973.19;;;10.18;100.00
37202;BME280;37799;52.390;6.136;2023-02-12T11:17:33;103977.91;;;10.32;100.00
37202;BME280;37799;52.390;6.136;2023-02-12T11:20:20;103976.28;;;10.36;100.00
37202;BME280;37799;52.390;6.136;2023-02-12T11:25:16;103977.25;;;10.41;100.00
37202;BME280;37799;52.390;6.136;2023-02-12T11:27:42;103978.88;;;10.36;100.00
37202;BME280;37799;52.390;6.136;2023-02-12T11:32:38;103970.19;;;10.34;100.00
37202;BME280;37799;52.390;6.136;2023-02-12T11:35:20;103970.84;;;10.27;100.00
37202;BME280;37799;52.390;6.136;2023-02-12T11:37:54;103962.44;;;10.36;100.00
37202;BME280;37799;52.390;6.136;2023-02-12T11:40:28;103965.59;;;10.24;100.00
37202;BME280;37799;52.390;6.136;2023-02-12T11:42:59;103961.34;;;10.26;100.00
37202;BME280;37799;52.390;6.136;2023-02-12T11:45:33;103955.22;;;10.22;100.00
37202;BME280;37799;52.390;6.136;2023-02-12T11:48:01;103953.69;;;10.30;100.00
37202;BME280;37799;52.390;6.136;2023-02-12T11:50:29;103953.59;;;10.27;100.00
37202;BME280;37799;52.390;6.136;2023-02-12T11:53:07;103963.59;;;10.15;100.00
37202;BME280;37799;52.390;6.136;2023-02-12T11:55:36;103965.22;;;10.10;100.00
37202;BME280;37799;52.390;6.136;2023-02-12T12:00:40;103952.44;;;10.16;100.00
37202;BME280;37799;52.390;6.136;2023-02-12T12:03:13;103958.22;;;10.06;100.00
37202;BME280;37799;52.390;6.136;2023-02-12T12:05:46;103945.06;;;9.98;100.00
37202;BME280;37799;52.390;6.136;2023-02-12T12:08:24;103940.81;;;10.02;100.00
37202;BME280;37799;52.390;6.136;2023-02-12T12:13:35;103937.88;;;9.88;100.00
37202;BME280;37799;52.390;6.136;2023-02-12T12:16:13;103936.00;;;9.81;100.00
37202;BME280;37799;52.390;6.136;2023-02-12T12:19:18;103934.97;;;9.76;100.00
37202;BME280;37799;52.390;6.136;2023-02-12T12:24:59;103926.78;;;9.61;100.00
37202;BME280;37799;52.390;6.136;2023-02-12T12:27:35;103935.66;;;9.69;100.00
37202;BME280;37799;52.390;6.136;2023-02-12T12:30:56;103930.47;;;9.69;100.00
37202;BME280;37799;52.390;6.136;2023-02-12T12:33:31;103924.50;;;9.71;100.00
37202;BME280;37799;52.390;6.136;2023-02-12T12:39:21;103929.13;;;9.83;100.00
37202;BME280;37799;52.390;6.136;2023-02-12T12:56:13;103920.94;;;9.36;100.00
37202;BME280;37799;52.390;6.136;2023-02-12T13:01:32;103924.94;;;9.55;100.00
37202;BME280;37799;52.390;6.136;2023-02-12T13:06:48;103909.19;;;9.48;100.00
37202;BME280;37799;52.390;6.136;2023-02-12T13:09:47;103908.97;;;9.71;100.00
37202;BME280;37799;52.390;6.136;2023-02-12T13:20:54;103898.94;;;9.51;100.00
37202;BME280;37799;52.390;6.136;2023-02-12T13:26:32;103893.09;;;9.58;100.00
37202;BME280;37799;52.390;6.136;2023-02-12T13:29:05;103888.81;;;9.60;100.00
37202;BME280;37799;52.390;6.136;2023-02-12T13:31:43;103884.34;;;9.53;100.00
37202;BME280;37799;52.390;6.136;2023-02-12T13:34:13;103885.25;;;9.55;100.00
37202;BME280;37799;52.390;6.136;2023-02-12T13:36:40;103884.53;;;9.60;100.00
37202;BME280;37799;52.390;6.136;2023-02-12T13:39:17;103886.13;;;9.55;100.00
37202;BME280;37799;52.390;6.136;2023-02-12T13:41:54;103888.09;;;9.64;100.00
37202;BME280;37799;52.390;6.136;2023-02-12T13:47:12;103881.75;;;9.53;100.00
37202;BME280;37799;52.390;6.136;2023-02-12T13:50:00;103888.03;;;9.62;100.00
37202;BME280;37799;52.390;6.136;2023-02-12T13:55:23;103880.19;;;9.92;100.00
37202;BME280;37799;52.390;6.136;2023-02-12T14:01:02;103882.63;;;9.23;100.00
37202;BME280;37799;52.390;6.136;2023-02-12T14:03:29;103872.06;;;9.14;100.00
37202;BME280;37799;52.390;6.136;2023-02-12T14:08:41;103876.31;;;9.12;100.00
37202;BME280;37799;52.390;6.136;2023-02-12T14:13:46;103861.06;;;9.23;100.00
37202;BME280;37799;52.390;6.136;2023-02-12T14:27:51;103853.75;;;9.08;100.00
37202;BME280;37799;52.390;6.136;2023-02-12T14:30:36;103854.59;;;9.07;100.00
37202;BME280;37799;52.390;6.136;2023-02-12T14:33:23;103853.97;;;9.14;100.00
37202;BME280;37799;52.390;6.136;2023-02-12T14:36:13;103860.97;;;9.18;100.00
37202;BME280;37799;52.390;6.136;2023-02-12T14:41:26;103867.03;;;9.20;100.00
37202;BME280;37799;52.390;6.136;2023-02-12T14:49:29;103862.75;;;9.21;100.00
37202;BME280;37799;52.390;6.136;2023-02-12T14:54:42;103870.13;;;9.07;100.00
37202;BME280;37799;52.390;6.136;2023-02-12T14:57:30;103860.09;;;9.18;100.00
37202;BME280;37799;52.390;6.136;2023-02-12T15:02:50;103862.59;;;9.14;100.00
37202;BME280;37799;52.390;6.136;2023-02-12T15:05:29;103866.78;;;9.11;100.00
37202;BME280;37799;52.390;6.136;2023-02-12T15:08:02;103859.59;;;9.31;100.00
37202;BME280;37799;52.390;6.136;2023-02-12T15:10:34;103870.66;;;9.25;100.00
37202;BME280;37799;52.390;6.136;2023-02-12T15:15:51;103858.44;;;9.21;100.00
37202;BME280;37799;52.390;6.136;2023-02-12T15:18:27;103858.47;;;8.91;100.00
37202;BME280;37799;52.390;6.136;2023-02-12T15:21:18;103862.47;;;8.81;100.00
37202;BME280;37799;52.390;6.136;2023-02-12T15:23:48;103853.34;;;8.64;100.00